sensor_id;sensor_type;location;lat;lon;timestamp;P1;durP1;ratioP1;P2;durP2;ratioP2
6661;SDS011;3367;48.714;8.994;2022-09-14T00:00:09;0.70;;;0.70;;
6661;SDS011;3367;48.714;8.994;2022-09-14T00:02:38;1.20;;;0.83;;
6661;SDS011;3367;48.714;8.994;2022-09-14T00:05:05;1.10;;;0.63;;
6661;SDS011;3367;48.714;8.994;2022-09-14T00:07:32;0.97;;;0.60;;
6661;SDS011;3367;48.714;8.994;2022-09-14T00:09:58;0.83;;;0.80;;
6661;SDS011;3367;48.714;8.994;2022-09-14T00:12:25;1.23;;;0.87;;
6661;SDS011;3367;48.714;8.994;2022-09-14T00:14:52;0.87;;;0.67;;
6661;SDS011;3367;48.714;8.994;2022-09-14T00:17:19;0.77;;;0.77;;
6661;SDS011;3367;48.714;8.994;2022-09-14T00:19:47;0.60;;;0.50;;
6661;SDS011;3367;48.714;8.994;2022-09-14T00:22:14;0.67;;;0.67;;
6661;SDS011;3367;48.714;8.994;2022-09-14T00:24:41;1.00;;;0.70;;
6661;SDS011;3367;48.714;8.994;2022-09-14T00:27:08;1.00;;;0.90;;
6661;SDS011;3367;48.714;8.994;2022-09-14T00:29:35;1.00;;;0.70;;
6661;SDS011;3367;48.714;8.994;2022-09-14T00:32:02;0.60;;;0.60;;
6661;SDS011;3367;48.714;8.994;2022-09-14T00:34:29;0.80;;;0.80;;
6661;SDS011;3367;48.714;8.994;2022-09-14T00:36:57;0.83;;;0.83;;
6661;SDS011;3367;48.714;8.994;2022-09-14T00:39:24;0.80;;;0.80;;
6661;SDS011;3367;48.714;8.994;2022-09-14T00:41:52;0.70;;;0.70;;
6661;SDS011;3367;48.714;8.994;2022-09-14T00:47:24;0.70;;;0.70;;
6661;SDS011;3367;48.714;8.994;2022-09-14T00:49:52;0.70;;;0.70;;
6661;SDS011;3367;48.714;8.994;2022-09-14T00:52:21;0.80;;;0.80;;
6661;SDS011;3367;48.714;8.994;2022-09-14T00:54:52;0.70;;;0.60;;
6661;SDS011;3367;48.714;8.994;2022-09-14T00:57:20;0.70;;;0.60;;
6661;SDS011;3367;48.714;8.994;2022-09-14T00:59:49;0.70;;;0.70;;
6661;SDS011;3367;48.714;8.994;2022-09-14T01:02:18;0.63;;;0.60;;
6661;SDS011;3367;48.714;8.994;2022-09-14T01:04:46;0.87;;;0.87;;
6661;SDS011;3367;48.714;8.994;2022-09-14T01:07:16;1.20;;;1.10;;
6661;SDS011;3367;48.714;8.994;2022-09-14T01:09:57;0.97;;;0.87;;
6661;SDS011;3367;48.714;8.994;2022-09-14T01:12:30;2.10;;;0.80;;
6661;SDS011;3367;48.714;8.994;2022-09-14T01:15:05;0.70;;;0.60;;
6661;SDS011;3367;48.714;8.994;2022-09-14T01:17:37;0.70;;;0.70;;
6661;SDS011;3367;48.714;8.994;2022-09-14T01:20:19;1.00;;;0.90;;
6661;SDS011;3367;48.714;8.994;2022-09-14T01:23:05;1.00;;;0.90;;
6661;SDS011;3367;48.714;8.994;2022-09-14T01:25:47;0.90;;;0.90;;
6661;SDS011;3367;48.714;8.994;2022-09-14T01:28:40;1.03;;;0.90;;
6661;SDS011;3367;48.714;8.994;2022-09-14T01:31:14;0.70;;;0.47;;
6661;SDS011;3367;48.714;8.994;2022-09-14T01:33:44;1.00;;;0.70;;
6661;SDS011;3367;48.714;8.994;2022-09-14T01:36:16;0.60;;;0.50;;
6661;SDS011;3367;48.714;8.994;2022-09-14T01:38:46;1.50;;;0.60;;
6661;SDS011;3367;48.714;8.994;2022-09-14T01:41:17;0.60;;;0.60;;
6661;SDS011;3367;48.714;8.994;2022-09-14T01:43:49;0.77;;;0.60;;
6661;SDS011;3367;48.714;8.994;2022-09-14T01:46:20;0.97;;;0.70;;
6661;SDS011;3367;48.714;8.994;2022-09-14T01:48:51;1.10;;;0.83;;
6661;SDS011;3367;48.714;8.994;2022-09-14T01:51:22;0.60;;;0.50;;
6661;SDS011;3367;48.714;8.994;2022-09-14T01:53:54;1.10;;;0.70;;
6661;SDS011;3367;48.714;8.994;2022-09-14T01:56:29;0.93;;;0.70;;
6661;SDS011;3367;48.714;8.994;2022-09-14T01:59:01;0.83;;;0.83;;
6661;SDS011;3367;48.714;8.994;2022-09-14T02:01:33;0.80;;;0.80;;
6661;SDS011;3367;48.714;8.994;2022-09-14T02:04:03;0.90;;;0.90;;
6661;SDS011;3367;48.714;8.994;2022-09-14T02:06:33;3.63;;;0.67;;
6661;SDS011;3367;48.714;8.994;2022-09-14T02:09:04;1.53;;;1.00;;
6661;SDS011;3367;48.714;8.994;2022-09-14T02:11:35;1.50;;;1.10;;
6661;SDS011;3367;48.714;8.994;2022-09-14T02:14:04;0.80;;;0.77;;
6661;SDS011;3367;48.714;8.994;2022-09-14T02:16:31;1.10;;;1.10;;
6661;SDS011;3367;48.714;8.994;2022-09-14T02:18:59;1.00;;;1.00;;
6661;SDS011;3367;48.714;8.994;2022-09-14T02:21:26;1.83;;;0.73;;
6661;SDS011;3367;48.714;8.994;2022-09-14T02:23:54;1.23;;;1.13;;
6661;SDS011;3367;48.714;8.994;2022-09-14T02:26:21;0.93;;;0.80;;
6661;SDS011;3367;48.714;8.994;2022-09-14T02:28:49;2.00;;;1.10;;
6661;SDS011;3367;48.714;8.994;2022-09-14T02:31:22;1.53;;;1.43;;
6661;SDS011;3367;48.714;8.994;2022-09-14T02:33:56;0.80;;;0.80;;
6661;SDS011;3367;48.714;8.994;2022-09-14T02:36:31;1.30;;;1.20;;
6661;SDS011;3367;48.714;8.994;2022-09-14T02:39:06;1.10;;;1.00;;
6661;SDS011;3367;48.714;8.994;2022-09-14T02:41:47;0.93;;;0.93;;
6661;SDS011;3367;48.714;8.994;2022-09-14T02:44:17;1.60;;;1.00;;
6661;SDS011;3367;48.714;8.994;2022-09-14T02:46:53;1.40;;;1.30;;
6661;SDS011;3367;48.714;8.994;2022-09-14T02:49:25;1.50;;;1.40;;
6661;SDS011;3367;48.714;8.994;2022-09-14T02:52:00;1.10;;;1.00;;
6661;SDS011;3367;48.714;8.994;2022-09-14T02:54:32;1.00;;;1.00;;
6661;SDS011;3367;48.714;8.994;2022-09-14T02:57:02;2.40;;;1.00;;
6661;SDS011;3367;48.714;8.994;2022-09-14T02:59:30;1.13;;;1.03;;
6661;SDS011;3367;48.714;8.994;2022-09-14T03:01:58;1.00;;;1.00;;
6661;SDS011;3367;48.714;8.994;2022-09-14T03:04:25;0.90;;;0.90;;
6661;SDS011;3367;48.714;8.994;2022-09-14T03:06:52;1.20;;;1.10;;
6661;SDS011;3367;48.714;8.994;2022-09-14T03:09:19;0.90;;;0.90;;
6661;SDS011;3367;48.714;8.994;2022-09-14T03:11:45;1.30;;;1.20;;
6661;SDS011;3367;48.714;8.994;2022-09-14T03:14:12;2.20;;;1.10;;
6661;SDS011;3367;48.714;8.994;2022-09-14T03:16:39;1.27;;;1.17;;
6661;SDS011;3367;48.714;8.994;2022-09-14T03:19:07;1.50;;;1.40;;
6661;SDS011;3367;48.714;8.994;2022-09-14T03:21:34;1.50;;;1.40;;
6661;SDS011;3367;48.714;8.994;2022-09-14T03:24:03;1.20;;;1.10;;
6661;SDS011;3367;48.714;8.994;2022-09-14T03:26:30;1.33;;;1.23;;
6661;SDS011;3367;48.714;8.994;2022-09-14T03:29:00;1.33;;;1.10;;
6661;SDS011;3367;48.714;8.994;2022-09-14T03:31:28;1.83;;;1.20;;
6661;SDS011;3367;48.714;8.994;2022-09-14T03:33:55;1.20;;;1.10;;
6661;SDS011;3367;48.714;8.994;2022-09-14T03:36:25;1.27;;;1.17;;
6661;SDS011;3367;48.714;8.994;2022-09-14T03:38:54;1.57;;;1.47;;
6661;SDS011;3367;48.714;8.994;2022-09-14T03:41:22;1.60;;;1.50;;
6661;SDS011;3367;48.714;8.994;2022-09-14T03:43:50;1.67;;;1.57;;
6661;SDS011;3367;48.714;8.994;2022-09-14T03:46:17;1.50;;;1.30;;
6661;SDS011;3367;48.714;8.994;2022-09-14T03:48:45;1.50;;;1.40;;
6661;SDS011;3367;48.714;8.994;2022-09-14T03:51:12;1.37;;;1.20;;
6661;SDS011;3367;48.714;8.994;2022-09-14T03:53:41;1.13;;;1.13;;
6661;SDS011;3367;48.714;8.994;2022-09-14T03:56:09;1.43;;;1.33;;
6661;SDS011;3367;48.714;8.994;2022-09-14T03:58:39;1.33;;;1.20;;
6661;SDS011;3367;48.714;8.994;2022-09-14T04:01:06;1.43;;;1.33;;
6661;SDS011;3367;48.714;8.994;2022-09-14T04:03:34;1.30;;;1.20;;
6661;SDS011;3367;48.714;8.994;2022-09-14T04:06:01;2.23;;;1.57;;
6661;SDS011;3367;48.714;8.994;2022-09-14T04:08:29;1.20;;;1.10;;
6661;SDS011;3367;48.714;8.994;2022-09-14T04:10:57;1.10;;;1.00;;
6661;SDS011;3367;48.714;8.994;2022-09-14T04:13:24;1.30;;;1.20;;
6661;SDS011;3367;48.714;8.994;2022-09-14T04:16:00;1.40;;;1.30;;
6661;SDS011;3367;48.714;8.994;2022-09-14T04:18:27;1.50;;;1.40;;
6661;SDS011;3367;48.714;8.994;2022-09-14T04:20:54;1.50;;;1.40;;
6661;SDS011;3367;48.714;8.994;2022-09-14T04:23:22;5.27;;;1.77;;
6661;SDS011;3367;48.714;8.994;2022-09-14T04:25:49;1.47;;;1.00;;
6661;SDS011;3367;48.714;8.994;2022-09-14T04:28:17;1.90;;;1.20;;
6661;SDS011;3367;48.714;8.994;2022-09-14T04:30:52;3.57;;;2.20;;
6661;SDS011;3367;48.714;8.994;2022-09-14T04:33:20;3.53;;;1.73;;
6661;SDS011;3367;48.714;8.994;2022-09-14T04:35:54;1.63;;;1.53;;
6661;SDS011;3367;48.714;8.994;2022-09-14T04:38:21;1.07;;;1.00;;
6661;SDS011;3367;48.714;8.994;2022-09-14T04:40:48;1.50;;;1.30;;
6661;SDS011;3367;48.714;8.994;2022-09-14T04:43:15;1.60;;;1.50;;
6661;SDS011;3367;48.714;8.994;2022-09-14T04:45:43;1.53;;;1.30;;
6661;SDS011;3367;48.714;8.994;2022-09-14T04:48:10;1.57;;;1.47;;
6661;SDS011;3367;48.714;8.994;2022-09-14T04:50:37;3.07;;;1.27;;
6661;SDS011;3367;48.714;8.994;2022-09-14T04:53:04;1.50;;;1.40;;
6661;SDS011;3367;48.714;8.994;2022-09-14T04:55:30;1.70;;;1.60;;
6661;SDS011;3367;48.714;8.994;2022-09-14T04:57:57;1.63;;;1.20;;
6661;SDS011;3367;48.714;8.994;2022-09-14T05:00:24;1.47;;;1.37;;
6661;SDS011;3367;48.714;8.994;2022-09-14T05:02:52;1.33;;;1.23;;
6661;SDS011;3367;48.714;8.994;2022-09-14T05:05:19;1.00;;;0.90;;
6661;SDS011;3367;48.714;8.994;2022-09-14T05:07:45;1.47;;;1.37;;
6661;SDS011;3367;48.714;8.994;2022-09-14T05:10:12;1.80;;;1.70;;
6661;SDS011;3367;48.714;8.994;2022-09-14T05:12:39;1.33;;;1.23;;
6661;SDS011;3367;48.714;8.994;2022-09-14T05:15:06;1.57;;;1.47;;
6661;SDS011;3367;48.714;8.994;2022-09-14T05:17:34;1.10;;;1.00;;
6661;SDS011;3367;48.714;8.994;2022-09-14T05:20:02;1.30;;;1.20;;
6661;SDS011;3367;48.714;8.994;2022-09-14T05:22:29;2.50;;;1.70;;
6661;SDS011;3367;48.714;8.994;2022-09-14T05:24:56;1.37;;;1.27;;
6661;SDS011;3367;48.714;8.994;2022-09-14T05:27:22;1.60;;;1.50;;
6661;SDS011;3367;48.714;8.994;2022-09-14T05:29:49;1.43;;;1.33;;
6661;SDS011;3367;48.714;8.994;2022-09-14T05:32:16;1.63;;;1.53;;
6661;SDS011;3367;48.714;8.994;2022-09-14T05:34:43;1.70;;;1.60;;
6661;SDS011;3367;48.714;8.994;2022-09-14T05:37:11;1.50;;;1.40;;
6661;SDS011;3367;48.714;8.994;2022-09-14T05:39:38;1.87;;;1.40;;
6661;SDS011;3367;48.714;8.994;2022-09-14T05:42:04;1.43;;;1.33;;
6661;SDS011;3367;48.714;8.994;2022-09-14T05:44:31;1.23;;;1.13;;
6661;SDS011;3367;48.714;8.994;2022-09-14T05:46:58;1.90;;;1.63;;
6661;SDS011;3367;48.714;8.994;2022-09-14T05:49:25;1.40;;;1.30;;
6661;SDS011;3367;48.714;8.994;2022-09-14T05:51:52;2.10;;;1.57;;
6661;SDS011;3367;48.714;8.994;2022-09-14T05:54:20;2.60;;;2.07;;
6661;SDS011;3367;48.714;8.994;2022-09-14T05:56:46;1.53;;;1.43;;
6661;SDS011;3367;48.714;8.994;2022-09-14T05:59:13;1.73;;;1.63;;
6661;SDS011;3367;48.714;8.994;2022-09-14T06:01:40;1.30;;;1.20;;
6661;SDS011;3367;48.714;8.994;2022-09-14T06:04:07;2.50;;;1.53;;
6661;SDS011;3367;48.714;8.994;2022-09-14T06:06:36;2.17;;;1.97;;
6661;SDS011;3367;48.714;8.994;2022-09-14T06:09:03;2.90;;;1.50;;
6661;SDS011;3367;48.714;8.994;2022-09-14T06:11:32;1.63;;;1.43;;
6661;SDS011;3367;48.714;8.994;2022-09-14T06:14:01;1.20;;;1.10;;
6661;SDS011;3367;48.714;8.994;2022-09-14T06:16:29;1.40;;;1.30;;
6661;SDS011;3367;48.714;8.994;2022-09-14T06:18:56;1.70;;;1.20;;
6661;SDS011;3367;48.714;8.994;2022-09-14T06:21:26;2.37;;;2.27;;
6661;SDS011;3367;48.714;8.994;2022-09-14T06:24:00;1.57;;;1.43;;
6661;SDS011;3367;48.714;8.994;2022-09-14T06:26:27;1.33;;;1.23;;
6661;SDS011;3367;48.714;8.994;2022-09-14T06:28:56;1.50;;;1.40;;
6661;SDS011;3367;48.714;8.994;2022-09-14T06:31:23;1.23;;;1.13;;
6661;SDS011;3367;48.714;8.994;2022-09-14T06:33:50;2.80;;;1.17;;
6661;SDS011;3367;48.714;8.994;2022-09-14T06:36:18;1.37;;;1.27;;
6661;SDS011;3367;48.714;8.994;2022-09-14T06:38:46;1.30;;;1.20;;
6661;SDS011;3367;48.714;8.994;2022-09-14T06:41:15;0.70;;;0.70;;
6661;SDS011;3367;48.714;8.994;2022-09-14T06:43:44;1.00;;;0.90;;
6661;SDS011;3367;48.714;8.994;2022-09-14T06:46:14;1.10;;;1.00;;
6661;SDS011;3367;48.714;8.994;2022-09-14T06:48:43;1.30;;;1.20;;
6661;SDS011;3367;48.714;8.994;2022-09-14T06:51:12;3.67;;;1.53;;
6661;SDS011;3367;48.714;8.994;2022-09-14T06:53:40;1.00;;;0.83;;
6661;SDS011;3367;48.714;8.994;2022-09-14T06:56:07;1.10;;;1.10;;
6661;SDS011;3367;48.714;8.994;2022-09-14T06:58:34;1.07;;;0.97;;
6661;SDS011;3367;48.714;8.994;2022-09-14T07:01:01;1.23;;;1.13;;
6661;SDS011;3367;48.714;8.994;2022-09-14T07:03:30;1.40;;;1.30;;
6661;SDS011;3367;48.714;8.994;2022-09-14T07:06:03;1.40;;;1.10;;
6661;SDS011;3367;48.714;8.994;2022-09-14T07:08:31;1.33;;;1.23;;
6661;SDS011;3367;48.714;8.994;2022-09-14T07:10:59;1.20;;;1.10;;
6661;SDS011;3367;48.714;8.994;2022-09-14T07:13:26;1.37;;;1.27;;
6661;SDS011;3367;48.714;8.994;2022-09-14T07:15:53;1.47;;;1.10;;
6661;SDS011;3367;48.714;8.994;2022-09-14T07:18:22;1.37;;;1.27;;
6661;SDS011;3367;48.714;8.994;2022-09-14T07:21:00;1.60;;;1.50;;
6661;SDS011;3367;48.714;8.994;2022-09-14T07:23:28;2.20;;;1.70;;
6661;SDS011;3367;48.714;8.994;2022-09-14T07:25:58;1.10;;;1.00;;
6661;SDS011;3367;48.714;8.994;2022-09-14T07:28:26;1.10;;;1.00;;
6661;SDS011;3367;48.714;8.994;2022-09-14T07:30:53;1.10;;;1.00;;
6661;SDS011;3367;48.714;8.994;2022-09-14T07:33:20;2.03;;;1.70;;
6661;SDS011;3367;48.714;8.994;2022-09-14T07:35:46;1.00;;;0.90;;
6661;SDS011;3367;48.714;8.994;2022-09-14T07:38:15;1.03;;;0.93;;
6661;SDS011;3367;48.714;8.994;2022-09-14T07:40:42;4.40;;;0.90;;
6661;SDS011;3367;48.714;8.994;2022-09-14T07:43:09;0.97;;;0.97;;
6661;SDS011;3367;48.714;8.994;2022-09-14T07:45:35;1.07;;;1.00;;
6661;SDS011;3367;48.714;8.994;2022-09-14T07:48:03;1.83;;;0.93;;
6661;SDS011;3367;48.714;8.994;2022-09-14T07:50:30;0.83;;;0.73;;
6661;SDS011;3367;48.714;8.994;2022-09-14T07:52:57;1.10;;;1.07;;
6661;SDS011;3367;48.714;8.994;2022-09-14T07:55:25;1.10;;;1.00;;
6661;SDS011;3367;48.714;8.994;2022-09-14T07:57:53;0.80;;;0.80;;
6661;SDS011;3367;48.714;8.994;2022-09-14T08:00:20;1.80;;;1.00;;
6661;SDS011;3367;48.714;8.994;2022-09-14T08:02:50;0.90;;;0.90;;
6661;SDS011;3367;48.714;8.994;2022-09-14T08:05:17;0.80;;;0.80;;
6661;SDS011;3367;48.714;8.994;2022-09-14T08:07:44;1.50;;;1.40;;
6661;SDS011;3367;48.714;8.994;2022-09-14T08:10:11;4.20;;;1.70;;
6661;SDS011;3367;48.714;8.994;2022-09-14T08:12:39;3.63;;;1.73;;
6661;SDS011;3367;48.714;8.994;2022-09-14T08:15:07;1.20;;;1.10;;
6661;SDS011;3367;48.714;8.994;2022-09-14T08:17:34;0.70;;;0.70;;
6661;SDS011;3367;48.714;8.994;2022-09-14T08:20:01;1.73;;;0.87;;
6661;SDS011;3367;48.714;8.994;2022-09-14T08:22:28;0.70;;;0.70;;
6661;SDS011;3367;48.714;8.994;2022-09-14T08:24:55;1.27;;;1.10;;
6661;SDS011;3367;48.714;8.994;2022-09-14T08:27:22;1.70;;;1.60;;
6661;SDS011;3367;48.714;8.994;2022-09-14T08:29:50;1.43;;;1.37;;
6661;SDS011;3367;48.714;8.994;2022-09-14T08:32:16;1.27;;;1.17;;
6661;SDS011;3367;48.714;8.994;2022-09-14T08:34:43;1.77;;;0.90;;
6661;SDS011;3367;48.714;8.994;2022-09-14T08:37:12;1.10;;;1.00;;
6661;SDS011;3367;48.714;8.994;2022-09-14T08:39:39;1.20;;;0.97;;
6661;SDS011;3367;48.714;8.994;2022-09-14T08:42:08;0.90;;;0.90;;
6661;SDS011;3367;48.714;8.994;2022-09-14T08:44:41;0.80;;;0.80;;
6661;SDS011;3367;48.714;8.994;2022-09-14T08:47:11;0.80;;;0.80;;
6661;SDS011;3367;48.714;8.994;2022-09-14T08:49:44;0.87;;;0.80;;
6661;SDS011;3367;48.714;8.994;2022-09-14T08:52:21;0.87;;;0.60;;
6661;SDS011;3367;48.714;8.994;2022-09-14T08:54:53;0.70;;;0.70;;
6661;SDS011;3367;48.714;8.994;2022-09-14T08:57:24;1.80;;;0.80;;
6661;SDS011;3367;48.714;8.994;2022-09-14T08:59:58;0.90;;;0.90;;
6661;SDS011;3367;48.714;8.994;2022-09-14T09:02:42;0.73;;;0.73;;
6661;SDS011;3367;48.714;8.994;2022-09-14T09:05:35;0.77;;;0.70;;
6661;SDS011;3367;48.714;8.994;2022-09-14T09:08:12;0.80;;;0.70;;
6661;SDS011;3367;48.714;8.994;2022-09-14T09:10:43;0.80;;;0.50;;
6661;SDS011;3367;48.714;8.994;2022-09-14T09:13:13;0.50;;;0.43;;
6661;SDS011;3367;48.714;8.994;2022-09-14T09:15:43;0.80;;;0.80;;
6661;SDS011;3367;48.714;8.994;2022-09-14T09:18:17;1.17;;;1.07;;
6661;SDS011;3367;48.714;8.994;2022-09-14T09:20:49;0.90;;;0.77;;
6661;SDS011;3367;48.714;8.994;2022-09-14T09:23:18;0.70;;;0.70;;
6661;SDS011;3367;48.714;8.994;2022-09-14T09:25:51;0.50;;;0.50;;
6661;SDS011;3367;48.714;8.994;2022-09-14T09:28:21;0.70;;;0.70;;
6661;SDS011;3367;48.714;8.994;2022-09-14T09:30:50;0.70;;;0.70;;
6661;SDS011;3367;48.714;8.994;2022-09-14T09:33:19;1.27;;;1.20;;
6661;SDS011;3367;48.714;8.994;2022-09-14T09:35:48;1.00;;;1.00;;
6661;SDS011;3367;48.714;8.994;2022-09-14T09:38:16;0.80;;;0.80;;
6661;SDS011;3367;48.714;8.994;2022-09-14T09:40:49;1.13;;;1.13;;
6661;SDS011;3367;48.714;8.994;2022-09-14T09:43:19;1.03;;;1.03;;
6661;SDS011;3367;48.714;8.994;2022-09-14T09:45:51;0.70;;;0.70;;
6661;SDS011;3367;48.714;8.994;2022-09-14T09:48:22;3.20;;;2.73;;
6661;SDS011;3367;48.714;8.994;2022-09-14T09:50:55;0.70;;;0.70;;
6661;SDS011;3367;48.714;8.994;2022-09-14T09:53:27;1.57;;;0.80;;
6661;SDS011;3367;48.714;8.994;2022-09-14T09:55:54;0.90;;;0.80;;
6661;SDS011;3367;48.714;8.994;2022-09-14T09:58:25;0.80;;;0.80;;
6661;SDS011;3367;48.714;8.994;2022-09-14T10:00:59;1.00;;;0.90;;
6661;SDS011;3367;48.714;8.994;2022-09-14T10:03:29;0.70;;;0.70;;
6661;SDS011;3367;48.714;8.994;2022-09-14T10:05:59;1.97;;;0.80;;
6661;SDS011;3367;48.714;8.994;2022-09-14T10:08:27;0.80;;;0.80;;
6661;SDS011;3367;48.714;8.994;2022-09-14T10:10:59;1.13;;;0.90;;
6661;SDS011;3367;48.714;8.994;2022-09-14T10:13:28;1.13;;;1.13;;
6661;SDS011;3367;48.714;8.994;2022-09-14T10:16:04;0.80;;;0.80;;
6661;SDS011;3367;48.714;8.994;2022-09-14T10:18:33;1.00;;;0.90;;
6661;SDS011;3367;48.714;8.994;2022-09-14T10:21:04;0.70;;;0.70;;
6661;SDS011;3367;48.714;8.994;2022-09-14T10:23:34;0.80;;;0.80;;
6661;SDS011;3367;48.714;8.994;2022-09-14T10:26:18;0.80;;;0.70;;
6661;SDS011;3367;48.714;8.994;2022-09-14T10:28:49;1.57;;;0.60;;
6661;SDS011;3367;48.714;8.994;2022-09-14T10:31:18;0.93;;;0.67;;
6661;SDS011;3367;48.714;8.994;2022-09-14T10:33:52;0.70;;;0.70;;
6661;SDS011;3367;48.714;8.994;2022-09-14T10:36:22;1.07;;;0.70;;
6661;SDS011;3367;48.714;8.994;2022-09-14T10:38:51;1.13;;;0.70;;
6661;SDS011;3367;48.714;8.994;2022-09-14T10:41:23;0.70;;;0.70;;
6661;SDS011;3367;48.714;8.994;2022-09-14T10:44:03;0.70;;;0.70;;
6661;SDS011;3367;48.714;8.994;2022-09-14T10:46:53;0.70;;;0.70;;
6661;SDS011;3367;48.714;8.994;2022-09-14T10:49:37;0.73;;;0.70;;
6661;SDS011;3367;48.714;8.994;2022-09-14T10:52:14;1.67;;;0.70;;
6661;SDS011;3367;48.714;8.994;2022-09-14T10:54:51;0.80;;;0.73;;
6661;SDS011;3367;48.714;8.994;2022-09-14T10:57:30;1.20;;;1.00;;
6661;SDS011;3367;48.714;8.994;2022-09-14T11:00:09;0.60;;;0.60;;
6661;SDS011;3367;48.714;8.994;2022-09-14T11:02:50;1.43;;;1.07;;
6661;SDS011;3367;48.714;8.994;2022-09-14T11:05:43;1.20;;;0.70;;
6661;SDS011;3367;48.714;8.994;2022-09-14T11:08:18;0.80;;;0.80;;
6661;SDS011;3367;48.714;8.994;2022-09-14T11:10:54;1.33;;;1.23;;
6661;SDS011;3367;48.714;8.994;2022-09-14T11:13:46;1.77;;;0.80;;
6661;SDS011;3367;48.714;8.994;2022-09-14T11:16:42;0.57;;;0.53;;
6661;SDS011;3367;48.714;8.994;2022-09-14T11:19:18;2.60;;;1.03;;
6661;SDS011;3367;48.714;8.994;2022-09-14T11:21:57;0.70;;;0.70;;
6661;SDS011;3367;48.714;8.994;2022-09-14T11:24:29;0.87;;;0.87;;
6661;SDS011;3367;48.714;8.994;2022-09-14T11:27:03;4.10;;;1.10;;
6661;SDS011;3367;48.714;8.994;2022-09-14T11:29:34;1.37;;;1.07;;
6661;SDS011;3367;48.714;8.994;2022-09-14T11:32:05;0.60;;;0.60;;
6661;SDS011;3367;48.714;8.994;2022-09-14T11:34:36;1.07;;;1.07;;
6661;SDS011;3367;48.714;8.994;2022-09-14T11:37:09;1.73;;;1.03;;
6661;SDS011;3367;48.714;8.994;2022-09-14T11:39:38;1.83;;;1.37;;
6661;SDS011;3367;48.714;8.994;2022-09-14T11:42:11;0.70;;;0.70;;
6661;SDS011;3367;48.714;8.994;2022-09-14T11:44:43;1.60;;;1.50;;
6661;SDS011;3367;48.714;8.994;2022-09-14T11:47:12;0.83;;;0.83;;
6661;SDS011;3367;48.714;8.994;2022-09-14T11:49:45;0.60;;;0.60;;
6661;SDS011;3367;48.714;8.994;2022-09-14T11:52:22;0.80;;;0.80;;
6661;SDS011;3367;48.714;8.994;2022-09-14T11:54:51;3.00;;;1.93;;
6661;SDS011;3367;48.714;8.994;2022-09-14T11:57:19;0.73;;;0.73;;
6661;SDS011;3367;48.714;8.994;2022-09-14T11:59:50;0.70;;;0.70;;
6661;SDS011;3367;48.714;8.994;2022-09-14T12:05:38;1.90;;;1.00;;
6661;SDS011;3367;48.714;8.994;2022-09-14T12:08:26;0.70;;;0.70;;
6661;SDS011;3367;48.714;8.994;2022-09-14T12:19:40;1.00;;;0.77;;
6661;SDS011;3367;48.714;8.994;2022-09-14T12:22:27;3.60;;;1.90;;
6661;SDS011;3367;48.714;8.994;2022-09-14T12:24:58;0.87;;;0.87;;
6661;SDS011;3367;48.714;8.994;2022-09-14T12:27:28;0.80;;;0.80;;
6661;SDS011;3367;48.714;8.994;2022-09-14T12:29:56;1.17;;;1.07;;
6661;SDS011;3367;48.714;8.994;2022-09-14T12:32:25;0.67;;;0.63;;
6661;SDS011;3367;48.714;8.994;2022-09-14T12:44:16;2.50;;;0.90;;
6661;SDS011;3367;48.714;8.994;2022-09-14T12:46:54;1.67;;;0.93;;
6661;SDS011;3367;48.714;8.994;2022-09-14T12:49:23;0.77;;;0.77;;
6661;SDS011;3367;48.714;8.994;2022-09-14T12:51:55;0.70;;;0.70;;
6661;SDS011;3367;48.714;8.994;2022-09-14T12:54:28;0.93;;;0.93;;
6661;SDS011;3367;48.714;8.994;2022-09-14T12:57:08;1.00;;;0.63;;
6661;SDS011;3367;48.714;8.994;2022-09-14T12:59:46;3.03;;;0.90;;
6661;SDS011;3367;48.714;8.994;2022-09-14T13:02:33;2.57;;;1.20;;
6661;SDS011;3367;48.714;8.994;2022-09-14T13:05:11;1.10;;;0.77;;
6661;SDS011;3367;48.714;8.994;2022-09-14T13:07:41;0.70;;;0.70;;
6661;SDS011;3367;48.714;8.994;2022-09-14T13:10:15;0.60;;;0.60;;
6661;SDS011;3367;48.714;8.994;2022-09-14T13:12:45;1.60;;;0.60;;
6661;SDS011;3367;48.714;8.994;2022-09-14T13:15:16;1.83;;;0.60;;
6661;SDS011;3367;48.714;8.994;2022-09-14T13:17:57;0.77;;;0.60;;
6661;SDS011;3367;48.714;8.994;2022-09-14T13:20:25;2.43;;;0.83;;
6661;SDS011;3367;48.714;8.994;2022-09-14T13:22:53;0.60;;;0.53;;
6661;SDS011;3367;48.714;8.994;2022-09-14T13:25:27;1.43;;;0.57;;
6661;SDS011;3367;48.714;8.994;2022-09-14T13:27:58;0.90;;;0.60;;
6661;SDS011;3367;48.714;8.994;2022-09-14T13:30:28;0.80;;;0.80;;
6661;SDS011;3367;48.714;8.994;2022-09-14T13:32:56;1.83;;;1.37;;
6661;SDS011;3367;48.714;8.994;2022-09-14T13:35:27;3.63;;;0.80;;
6661;SDS011;3367;48.714;8.994;2022-09-14T13:37:57;0.70;;;0.50;;
6661;SDS011;3367;48.714;8.994;2022-09-14T13:40:26;0.70;;;0.60;;
6661;SDS011;3367;48.714;8.994;2022-09-14T13:42:55;0.67;;;0.63;;
6661;SDS011;3367;48.714;8.994;2022-09-14T13:45:22;0.70;;;0.50;;
6661;SDS011;3367;48.714;8.994;2022-09-14T13:47:51;0.73;;;0.63;;
6661;SDS011;3367;48.714;8.994;2022-09-14T13:50:19;0.67;;;0.40;;
6661;SDS011;3367;48.714;8.994;2022-09-14T13:52:49;0.80;;;0.80;;
6661;SDS011;3367;48.714;8.994;2022-09-14T13:55:24;0.80;;;0.50;;
6661;SDS011;3367;48.714;8.994;2022-09-14T14:00:51;1.93;;;0.67;;
6661;SDS011;3367;48.714;8.994;2022-09-14T14:03:29;0.60;;;0.40;;
6661;SDS011;3367;48.714;8.994;2022-09-14T14:05:58;0.53;;;0.50;;
6661;SDS011;3367;48.714;8.994;2022-09-14T14:08:30;0.80;;;0.60;;
6661;SDS011;3367;48.714;8.994;2022-09-14T14:10:59;0.63;;;0.50;;
6661;SDS011;3367;48.714;8.994;2022-09-14T14:13:28;5.63;;;0.70;;
6661;SDS011;3367;48.714;8.994;2022-09-14T14:16:11;0.90;;;0.80;;
6661;SDS011;3367;48.714;8.994;2022-09-14T14:18:41;0.60;;;0.50;;
6661;SDS011;3367;48.714;8.994;2022-09-14T14:21:15;0.80;;;0.70;;
6661;SDS011;3367;48.714;8.994;2022-09-14T14:23:49;0.60;;;0.57;;
6661;SDS011;3367;48.714;8.994;2022-09-14T14:26:18;0.70;;;0.70;;
6661;SDS011;3367;48.714;8.994;2022-09-14T14:28:50;0.60;;;0.50;;
6661;SDS011;3367;48.714;8.994;2022-09-14T14:31:18;1.00;;;0.63;;
6661;SDS011;3367;48.714;8.994;2022-09-14T14:33:50;1.20;;;0.50;;
6661;SDS011;3367;48.714;8.994;2022-09-14T14:36:19;1.70;;;0.80;;
6661;SDS011;3367;48.714;8.994;2022-09-14T14:38:46;0.60;;;0.50;;
6661;SDS011;3367;48.714;8.994;2022-09-14T14:41:14;0.53;;;0.37;;
6661;SDS011;3367;48.714;8.994;2022-09-14T14:43:42;0.70;;;0.50;;
6661;SDS011;3367;48.714;8.994;2022-09-14T14:46:11;1.10;;;0.50;;
6661;SDS011;3367;48.714;8.994;2022-09-14T14:48:39;0.50;;;0.40;;
6661;SDS011;3367;48.714;8.994;2022-09-14T14:51:08;0.57;;;0.40;;
6661;SDS011;3367;48.714;8.994;2022-09-14T14:53:38;0.40;;;0.30;;
6661;SDS011;3367;48.714;8.994;2022-09-14T14:56:05;0.50;;;0.40;;
6661;SDS011;3367;48.714;8.994;2022-09-14T14:58:32;0.70;;;0.50;;
6661;SDS011;3367;48.714;8.994;2022-09-14T15:01:06;0.50;;;0.30;;
6661;SDS011;3367;48.714;8.994;2022-09-14T15:03:33;0.50;;;0.50;;
6661;SDS011;3367;48.714;8.994;2022-09-14T15:06:10;1.17;;;0.40;;
6661;SDS011;3367;48.714;8.994;2022-09-14T15:08:39;0.50;;;0.40;;
6661;SDS011;3367;48.714;8.994;2022-09-14T15:11:08;0.63;;;0.60;;
6661;SDS011;3367;48.714;8.994;2022-09-14T15:13:39;0.73;;;0.60;;
6661;SDS011;3367;48.714;8.994;2022-09-14T15:16:06;0.50;;;0.33;;
6661;SDS011;3367;48.714;8.994;2022-09-14T15:18:33;0.80;;;0.50;;
6661;SDS011;3367;48.714;8.994;2022-09-14T15:20:59;0.70;;;0.50;;
6661;SDS011;3367;48.714;8.994;2022-09-14T15:23:28;0.53;;;0.50;;
6661;SDS011;3367;48.714;8.994;2022-09-14T15:25:54;0.80;;;0.60;;
6661;SDS011;3367;48.714;8.994;2022-09-14T15:28:21;1.33;;;0.90;;
6661;SDS011;3367;48.714;8.994;2022-09-14T15:30:48;0.50;;;0.30;;
6661;SDS011;3367;48.714;8.994;2022-09-14T15:33:15;0.50;;;0.40;;
6661;SDS011;3367;48.714;8.994;2022-09-14T15:35:42;0.60;;;0.40;;
6661;SDS011;3367;48.714;8.994;2022-09-14T15:38:09;0.50;;;0.40;;
6661;SDS011;3367;48.714;8.994;2022-09-14T15:40:38;0.60;;;0.40;;
6661;SDS011;3367;48.714;8.994;2022-09-14T15:43:04;0.60;;;0.47;;
6661;SDS011;3367;48.714;8.994;2022-09-14T15:45:31;1.50;;;1.00;;
6661;SDS011;3367;48.714;8.994;2022-09-14T15:47:58;0.50;;;0.30;;
6661;SDS011;3367;48.714;8.994;2022-09-14T15:50:25;0.60;;;0.43;;
6661;SDS011;3367;48.714;8.994;2022-09-14T15:52:51;0.70;;;0.50;;
6661;SDS011;3367;48.714;8.994;2022-09-14T15:55:18;0.70;;;0.50;;
6661;SDS011;3367;48.714;8.994;2022-09-14T15:57:46;1.13;;;0.70;;
6661;SDS011;3367;48.714;8.994;2022-09-14T16:00:13;1.43;;;0.77;;